sensor_id;sensor_type;location;lat;lon;timestamp;P1;durP1;ratioP1;P2;durP2;ratioP2
56997;SDS011;42890;44.244;22.530;2023-03-15T00:00:19;15.45;;;13.80;;
56997;SDS011;42890;44.244;22.530;2023-03-15T00:02:45;16.95;;;15.23;;
56997;SDS011;42890;44.244;22.530;2023-03-15T00:05:11;16.40;;;14.38;;
56997;SDS011;42890;44.244;22.530;2023-03-15T00:07:37;22.90;;;17.23;;
56997;SDS011;42890;44.244;22.530;2023-03-15T00:10:04;39.03;;;24.10;;
56997;SDS011;42890;44.244;22.530;2023-03-15T00:12:30;31.77;;;27.38;;
56997;SDS011;42890;44.244;22.530;2023-03-15T00:14:58;85.05;;;61.05;;
56997;SDS011;42890;44.244;22.530;2023-03-15T00:17:24;426.45;;;159.27;;
56997;SDS011;42890;44.244;22.530;2023-03-15T00:19:50;375.50;;;132.30;;
56997;SDS011;42890;44.244;22.530;2023-03-15T00:22:16;291.33;;;100.35;;
56997;SDS011;42890;44.244;22.530;2023-03-15T00:24:42;31.50;;;22.95;;
56997;SDS011;42890;44.244;22.530;2023-03-15T00:27:09;22.48;;;17.13;;
56997;SDS011;42890;44.244;22.530;2023-03-15T00:29:35;19.98;;;17.90;;
56997;SDS011;42890;44.244;22.530;2023-03-15T00:32:01;44.05;;;29.08;;
56997;SDS011;42890;44.244;22.530;2023-03-15T00:34:27;27.77;;;22.17;;
56997;SDS011;42890;44.244;22.530;2023-03-15T00:36:53;27.50;;;19.92;;
56997;SDS011;42890;44.244;22.530;2023-03-15T00:39:19;23.58;;;18.20;;
56997;SDS011;42890;44.244;22.530;2023-03-15T00:41:46;25.35;;;18.20;;
56997;SDS011;42890;44.244;22.530;2023-03-15T00:44:12;25.02;;;18.63;;
56997;SDS011;42890;44.244;22.530;2023-03-15T00:46:38;23.45;;;18.83;;
56997;SDS011;42890;44.244;22.530;2023-03-15T00:49:04;20.83;;;18.08;;
56997;SDS011;42890;44.244;22.530;2023-03-15T00:51:30;21.40;;;15.75;;
56997;SDS011;42890;44.244;22.530;2023-03-15T00:53:57;20.75;;;17.45;;
56997;SDS011;42890;44.244;22.530;2023-03-15T00:56:24;30.52;;;24.23;;
56997;SDS011;42890;44.244;22.530;2023-03-15T00:58:50;17.17;;;15.38;;
56997;SDS011;42890;44.244;22.530;2023-03-15T01:01:18;19.00;;;15.30;;
56997;SDS011;42890;44.244;22.530;2023-03-15T01:03:45;162.10;;;79.18;;
56997;SDS011;42890;44.244;22.530;2023-03-15T01:06:16;35.75;;;28.08;;
56997;SDS011;42890;44.244;22.530;2023-03-15T01:08:42;30.38;;;23.70;;
56997;SDS011;42890;44.244;22.530;2023-03-15T01:11:09;36.33;;;27.42;;
56997;SDS011;42890;44.244;22.530;2023-03-15T01:13:36;154.40;;;79.65;;
56997;SDS011;42890;44.244;22.530;2023-03-15T01:16:02;75.97;;;46.75;;
56997;SDS011;42890;44.244;22.530;2023-03-15T01:18:29;117.97;;;62.67;;
56997;SDS011;42890;44.244;22.530;2023-03-15T01:20:55;106.55;;;61.75;;
56997;SDS011;42890;44.244;22.530;2023-03-15T01:23:21;61.33;;;46.05;;
56997;SDS011;42890;44.244;22.530;2023-03-15T01:25:47;38.40;;;29.83;;
56997;SDS011;42890;44.244;22.530;2023-03-15T01:28:13;103.70;;;55.17;;
56997;SDS011;42890;44.244;22.530;2023-03-15T01:30:39;71.68;;;55.10;;
56997;SDS011;42890;44.244;22.530;2023-03-15T01:33:06;94.15;;;65.45;;
56997;SDS011;42890;44.244;22.530;2023-03-15T01:35:32;123.75;;;74.85;;
56997;SDS011;42890;44.244;22.530;2023-03-15T01:37:58;130.85;;;80.07;;
56997;SDS011;42890;44.244;22.530;2023-03-15T01:40:24;190.35;;;104.63;;
56997;SDS011;42890;44.244;22.530;2023-03-15T01:43:13;120.82;;;75.28;;
56997;SDS011;42890;44.244;22.530;2023-03-15T01:48:22;22.88;;;19.45;;
56997;SDS011;42890;44.244;22.530;2023-03-15T01:50:49;19.58;;;16.05;;
56997;SDS011;42890;44.244;22.530;2023-03-15T01:53:16;23.15;;;15.57;;
56997;SDS011;42890;44.244;22.530;2023-03-15T01:55:42;32.63;;;20.83;;
56997;SDS011;42890;44.244;22.530;2023-03-15T01:58:08;24.35;;;18.70;;
56997;SDS011;42890;44.244;22.530;2023-03-15T02:00:34;74.90;;;35.20;;
56997;SDS011;42890;44.244;22.530;2023-03-15T02:03:05;36.15;;;24.70;;
56997;SDS011;42890;44.244;22.530;2023-03-15T02:05:34;54.72;;;28.08;;
56997;SDS011;42890;44.244;22.530;2023-03-15T02:08:02;127.22;;;51.63;;
56997;SDS011;42890;44.244;22.530;2023-03-15T02:10:30;129.77;;;55.92;;
56997;SDS011;42890;44.244;22.530;2023-03-15T02:12:57;84.07;;;45.67;;
56997;SDS011;42890;44.244;22.530;2023-03-15T02:15:24;98.03;;;48.42;;
56997;SDS011;42890;44.244;22.530;2023-03-15T02:17:50;56.85;;;40.42;;
56997;SDS011;42890;44.244;22.530;2023-03-15T02:23:05;200.77;;;88.90;;
56997;SDS011;42890;44.244;22.530;2023-03-15T02:25:46;90.25;;;60.95;;
56997;SDS011;42890;44.244;22.530;2023-03-15T02:28:15;88.25;;;62.35;;
56997;SDS011;42890;44.244;22.530;2023-03-15T02:30:42;205.98;;;100.35;;
56997;SDS011;42890;44.244;22.530;2023-03-15T02:33:20;413.42;;;158.45;;
56997;SDS011;42890;44.244;22.530;2023-03-15T02:35:47;102.13;;;50.58;;
56997;SDS011;42890;44.244;22.530;2023-03-15T02:38:13;46.70;;;31.85;;
56997;SDS011;42890;44.244;22.530;2023-03-15T02:40:39;42.95;;;34.45;;
56997;SDS011;42890;44.244;22.530;2023-03-15T02:43:06;65.65;;;50.97;;
56997;SDS011;42890;44.244;22.530;2023-03-15T02:45:33;82.30;;;55.33;;
56997;SDS011;42890;44.244;22.530;2023-03-15T02:48:00;261.55;;;122.90;;
56997;SDS011;42890;44.244;22.530;2023-03-15T02:50:27;245.05;;;117.93;;
56997;SDS011;42890;44.244;22.530;2023-03-15T02:52:53;197.48;;;102.07;;
56997;SDS011;42890;44.244;22.530;2023-03-15T02:55:19;249.25;;;124.25;;
56997;SDS011;42890;44.244;22.530;2023-03-15T02:57:46;228.07;;;118.70;;
56997;SDS011;42890;44.244;22.530;2023-03-15T03:00:12;208.50;;;112.03;;
56997;SDS011;42890;44.244;22.530;2023-03-15T03:02:39;197.80;;;100.25;;
56997;SDS011;42890;44.244;22.530;2023-03-15T03:05:06;172.15;;;96.80;;
56997;SDS011;42890;44.244;22.530;2023-03-15T03:07:32;194.52;;;107.78;;
56997;SDS011;42890;44.244;22.530;2023-03-15T03:09:58;181.30;;;102.50;;
56997;SDS011;42890;44.244;22.530;2023-03-15T03:12:24;201.07;;;114.95;;
56997;SDS011;42890;44.244;22.530;2023-03-15T03:14:50;199.38;;;114.85;;
56997;SDS011;42890;44.244;22.530;2023-03-15T03:17:16;206.15;;;121.30;;
56997;SDS011;42890;44.244;22.530;2023-03-15T03:19:43;196.77;;;115.20;;
56997;SDS011;42890;44.244;22.530;2023-03-15T03:22:09;233.45;;;132.45;;
56997;SDS011;42890;44.244;22.530;2023-03-15T03:24:37;267.60;;;144.35;;
56997;SDS011;42890;44.244;22.530;2023-03-15T03:27:03;298.10;;;136.35;;
56997;SDS011;42890;44.244;22.530;2023-03-15T03:29:29;250.57;;;127.50;;
56997;SDS011;42890;44.244;22.530;2023-03-15T03:31:56;308.42;;;135.23;;
56997;SDS011;42890;44.244;22.530;2023-03-15T03:34:22;238.52;;;114.78;;
56997;SDS011;42890;44.244;22.530;2023-03-15T03:36:48;221.68;;;115.88;;
56997;SDS011;42890;44.244;22.530;2023-03-15T03:39:14;259.88;;;130.23;;
56997;SDS011;42890;44.244;22.530;2023-03-15T03:41:40;261.77;;;134.32;;
56997;SDS011;42890;44.244;22.530;2023-03-15T03:44:06;239.43;;;130.68;;
56997;SDS011;42890;44.244;22.530;2023-03-15T03:46:32;232.52;;;127.35;;
56997;SDS011;42890;44.244;22.530;2023-03-15T03:49:00;234.85;;;126.68;;
56997;SDS011;42890;44.244;22.530;2023-03-15T03:51:26;222.45;;;124.80;;
56997;SDS011;42890;44.244;22.530;2023-03-15T03:53:52;232.45;;;126.97;;
56997;SDS011;42890;44.244;22.530;2023-03-15T03:56:18;262.40;;;136.90;;
56997;SDS011;42890;44.244;22.530;2023-03-15T03:58:44;225.65;;;117.13;;
56997;SDS011;42890;44.244;22.530;2023-03-15T04:01:10;226.82;;;124.57;;
56997;SDS011;42890;44.244;22.530;2023-03-15T04:03:36;207.57;;;116.22;;
56997;SDS011;42890;44.244;22.530;2023-03-15T04:06:03;194.13;;;105.95;;
56997;SDS011;42890;44.244;22.530;2023-03-15T04:08:29;191.05;;;105.97;;
56997;SDS011;42890;44.244;22.530;2023-03-15T04:10:56;165.00;;;85.05;;
56997;SDS011;42890;44.244;22.530;2023-03-15T04:13:23;159.98;;;94.10;;
56997;SDS011;42890;44.244;22.530;2023-03-15T04:15:49;134.48;;;85.63;;
56997;SDS011;42890;44.244;22.530;2023-03-15T04:18:16;126.13;;;82.63;;
56997;SDS011;42890;44.244;22.530;2023-03-15T04:20:42;131.02;;;81.57;;
56997;SDS011;42890;44.244;22.530;2023-03-15T04:23:14;127.57;;;81.60;;
56997;SDS011;42890;44.244;22.530;2023-03-15T04:25:41;110.68;;;72.22;;
56997;SDS011;42890;44.244;22.530;2023-03-15T04:28:07;114.30;;;75.32;;
56997;SDS011;42890;44.244;22.530;2023-03-15T04:30:35;76.00;;;59.13;;
56997;SDS011;42890;44.244;22.530;2023-03-15T04:33:01;101.28;;;71.63;;
56997;SDS011;42890;44.244;22.530;2023-03-15T04:35:28;98.72;;;67.63;;
56997;SDS011;42890;44.244;22.530;2023-03-15T04:37:55;110.18;;;74.07;;
56997;SDS011;42890;44.244;22.530;2023-03-15T04:40:22;112.70;;;76.10;;
56997;SDS011;42890;44.244;22.530;2023-03-15T04:42:54;61.30;;;50.92;;
56997;SDS011;42890;44.244;22.530;2023-03-15T04:45:20;55.17;;;46.15;;
56997;SDS011;42890;44.244;22.530;2023-03-15T04:47:48;47.88;;;41.75;;
56997;SDS011;42890;44.244;22.530;2023-03-15T04:50:14;53.45;;;43.58;;
56997;SDS011;42890;44.244;22.530;2023-03-15T04:52:40;64.63;;;53.03;;
56997;SDS011;42890;44.244;22.530;2023-03-15T04:55:07;72.70;;;57.08;;
56997;SDS011;42890;44.244;22.530;2023-03-15T04:57:33;63.20;;;53.17;;
56997;SDS011;42890;44.244;22.530;2023-03-15T04:59:59;75.38;;;56.58;;
56997;SDS011;42890;44.244;22.530;2023-03-15T05:02:25;106.68;;;71.40;;
56997;SDS011;42890;44.244;22.530;2023-03-15T05:04:51;119.25;;;75.85;;
56997;SDS011;42890;44.244;22.530;2023-03-15T05:07:18;88.85;;;67.47;;
56997;SDS011;42890;44.244;22.530;2023-03-15T05:09:44;130.20;;;75.30;;
56997;SDS011;42890;44.244;22.530;2023-03-15T05:12:11;97.55;;;63.80;;
56997;SDS011;42890;44.244;22.530;2023-03-15T05:14:37;60.72;;;50.00;;
56997;SDS011;42890;44.244;22.530;2023-03-15T05:17:04;65.95;;;48.25;;
56997;SDS011;42890;44.244;22.530;2023-03-15T05:19:30;173.65;;;86.85;;
56997;SDS011;42890;44.244;22.530;2023-03-15T05:21:59;175.13;;;94.25;;
56997;SDS011;42890;44.244;22.530;2023-03-15T05:24:26;206.43;;;113.93;;
56997;SDS011;42890;44.244;22.530;2023-03-15T05:26:52;238.68;;;128.10;;
56997;SDS011;42890;44.244;22.530;2023-03-15T05:29:20;259.08;;;145.95;;
56997;SDS011;42890;44.244;22.530;2023-03-15T05:31:47;195.95;;;114.15;;
56997;SDS011;42890;44.244;22.530;2023-03-15T05:34:13;157.07;;;94.75;;
56997;SDS011;42890;44.244;22.530;2023-03-15T05:36:39;107.65;;;75.88;;
56997;SDS011;42890;44.244;22.530;2023-03-15T05:39:06;94.03;;;68.13;;
56997;SDS011;42890;44.244;22.530;2023-03-15T05:41:33;90.10;;;63.58;;
56997;SDS011;42890;44.244;22.530;2023-03-15T05:43:59;111.15;;;71.78;;
56997;SDS011;42890;44.244;22.530;2023-03-15T05:46:25;126.18;;;77.40;;
56997;SDS011;42890;44.244;22.530;2023-03-15T05:48:51;146.68;;;82.20;;
56997;SDS011;42890;44.244;22.530;2023-03-15T05:51:18;149.27;;;84.53;;
56997;SDS011;42890;44.244;22.530;2023-03-15T05:53:44;179.35;;;92.20;;
56997;SDS011;42890;44.244;22.530;2023-03-15T05:56:10;263.30;;;115.03;;
56997;SDS011;42890;44.244;22.530;2023-03-15T05:58:36;227.77;;;111.93;;
56997;SDS011;42890;44.244;22.530;2023-03-15T06:01:02;260.40;;;130.00;;
56997;SDS011;42890;44.244;22.530;2023-03-15T06:03:30;187.98;;;102.45;;
56997;SDS011;42890;44.244;22.530;2023-03-15T06:05:58;80.00;;;61.78;;
56997;SDS011;42890;44.244;22.530;2023-03-15T06:08:25;78.63;;;57.55;;
56997;SDS011;42890;44.244;22.530;2023-03-15T06:10:51;191.32;;;99.45;;
56997;SDS011;42890;44.244;22.530;2023-03-15T06:13:17;111.43;;;68.72;;
56997;SDS011;42890;44.244;22.530;2023-03-15T06:15:45;78.00;;;53.80;;
56997;SDS011;42890;44.244;22.530;2023-03-15T06:18:11;75.70;;;53.08;;
56997;SDS011;42890;44.244;22.530;2023-03-15T06:20:38;108.53;;;72.03;;
56997;SDS011;42890;44.244;22.530;2023-03-15T06:23:04;71.70;;;57.55;;
56997;SDS011;42890;44.244;22.530;2023-03-15T06:25:30;84.55;;;65.20;;
56997;SDS011;42890;44.244;22.530;2023-03-15T06:27:56;90.90;;;65.10;;
56997;SDS011;42890;44.244;22.530;2023-03-15T06:30:23;120.13;;;78.93;;
56997;SDS011;42890;44.244;22.530;2023-03-15T06:32:50;165.90;;;99.70;;
56997;SDS011;42890;44.244;22.530;2023-03-15T06:35:17;225.15;;;126.53;;
56997;SDS011;42890;44.244;22.530;2023-03-15T06:37:43;205.07;;;120.97;;
56997;SDS011;42890;44.244;22.530;2023-03-15T06:40:09;259.13;;;136.15;;
56997;SDS011;42890;44.244;22.530;2023-03-15T06:42:36;217.88;;;125.65;;
56997;SDS011;42890;44.244;22.530;2023-03-15T06:45:03;194.50;;;116.30;;
56997;SDS011;42890;44.244;22.530;2023-03-15T06:47:29;204.38;;;120.00;;
56997;SDS011;42890;44.244;22.530;2023-03-15T06:49:55;221.68;;;122.43;;
56997;SDS011;42890;44.244;22.530;2023-03-15T06:52:21;213.75;;;123.07;;
56997;SDS011;42890;44.244;22.530;2023-03-15T06:54:48;190.50;;;111.93;;
56997;SDS011;42890;44.244;22.530;2023-03-15T06:57:14;182.80;;;109.13;;
56997;SDS011;42890;44.244;22.530;2023-03-15T06:59:40;216.68;;;130.25;;
56997;SDS011;42890;44.244;22.530;2023-03-15T07:02:11;270.67;;;164.45;;
56997;SDS011;42890;44.244;22.530;2023-03-15T07:04:38;231.70;;;138.13;;
56997;SDS011;42890;44.244;22.530;2023-03-15T07:07:04;225.15;;;141.02;;
56997;SDS011;42890;44.244;22.530;2023-03-15T07:09:30;158.25;;;98.45;;
56997;SDS011;42890;44.244;22.530;2023-03-15T07:11:56;106.40;;;77.07;;
56997;SDS011;42890;44.244;22.530;2023-03-15T07:14:22;92.65;;;69.30;;
56997;SDS011;42890;44.244;22.530;2023-03-15T07:16:49;59.00;;;51.97;;
56997;SDS011;42890;44.244;22.530;2023-03-15T07:19:15;56.13;;;39.95;;
56997;SDS011;42890;44.244;22.530;2023-03-15T07:21:41;40.00;;;35.60;;
56997;SDS011;42890;44.244;22.530;2023-03-15T07:24:07;28.67;;;23.13;;
56997;SDS011;42890;44.244;22.530;2023-03-15T07:26:33;26.50;;;20.55;;
56997;SDS011;42890;44.244;22.530;2023-03-15T07:28:59;30.85;;;22.88;;
56997;SDS011;42890;44.244;22.530;2023-03-15T07:31:25;34.10;;;26.67;;
56997;SDS011;42890;44.244;22.530;2023-03-15T07:33:51;33.53;;;22.38;;
56997;SDS011;42890;44.244;22.530;2023-03-15T07:36:17;26.95;;;18.20;;
56997;SDS011;42890;44.244;22.530;2023-03-15T07:38:43;18.25;;;16.20;;
56997;SDS011;42890;44.244;22.530;2023-03-15T07:41:10;20.48;;;15.95;;
56997;SDS011;42890;44.244;22.530;2023-03-15T07:43:36;26.08;;;19.55;;
56997;SDS011;42890;44.244;22.530;2023-03-15T07:46:02;32.90;;;23.63;;
56997;SDS011;42890;44.244;22.530;2023-03-15T07:48:28;27.40;;;18.45;;
56997;SDS011;42890;44.244;22.530;2023-03-15T07:50:55;22.40;;;14.43;;
56997;SDS011;42890;44.244;22.530;2023-03-15T07:53:21;22.88;;;13.65;;
56997;SDS011;42890;44.244;22.530;2023-03-15T07:55:47;21.83;;;15.15;;
56997;SDS011;42890;44.244;22.530;2023-03-15T07:58:14;16.92;;;13.52;;
56997;SDS011;42890;44.244;22.530;2023-03-15T08:00:40;17.50;;;12.93;;
56997;SDS011;42890;44.244;22.530;2023-03-15T08:03:06;34.90;;;14.60;;
56997;SDS011;42890;44.244;22.530;2023-03-15T08:05:33;19.55;;;12.98;;
56997;SDS011;42890;44.244;22.530;2023-03-15T08:07:59;20.15;;;15.57;;
56997;SDS011;42890;44.244;22.530;2023-03-15T08:10:25;19.65;;;13.85;;
56997;SDS011;42890;44.244;22.530;2023-03-15T08:12:51;23.48;;;13.85;;
56997;SDS011;42890;44.244;22.530;2023-03-15T08:15:19;15.45;;;13.57;;
56997;SDS011;42890;44.244;22.530;2023-03-15T08:17:46;23.75;;;17.88;;
56997;SDS011;42890;44.244;22.530;2023-03-15T08:20:12;24.40;;;18.92;;
56997;SDS011;42890;44.244;22.530;2023-03-15T08:22:41;18.40;;;15.20;;
56997;SDS011;42890;44.244;22.530;2023-03-15T08:25:11;22.58;;;16.30;;
56997;SDS011;42890;44.244;22.530;2023-03-15T08:27:38;16.85;;;11.43;;
56997;SDS011;42890;44.244;22.530;2023-03-15T08:30:06;11.82;;;10.48;;
56997;SDS011;42890;44.244;22.530;2023-03-15T08:32:32;22.48;;;17.67;;
56997;SDS011;42890;44.244;22.530;2023-03-15T08:34:58;15.10;;;12.23;;
56997;SDS011;42890;44.244;22.530;2023-03-15T08:37:24;14.27;;;12.23;;
56997;SDS011;42890;44.244;22.530;2023-03-15T08:39:51;13.00;;;11.65;;
56997;SDS011;42890;44.244;22.530;2023-03-15T08:42:25;14.23;;;11.60;;
56997;SDS011;42890;44.244;22.530;2023-03-15T08:44:51;12.65;;;10.48;;
56997;SDS011;42890;44.244;22.530;2023-03-15T08:47:17;29.23;;;16.02;;
56997;SDS011;42890;44.244;22.530;2023-03-15T08:49:43;29.90;;;16.45;;
56997;SDS011;42890;44.244;22.530;2023-03-15T08:52:09;27.58;;;13.95;;
56997;SDS011;42890;44.244;22.530;2023-03-15T08:54:35;15.13;;;12.63;;
56997;SDS011;42890;44.244;22.530;2023-03-15T08:57:02;22.38;;;14.88;;
56997;SDS011;42890;44.244;22.530;2023-03-15T08:59:28;21.25;;;15.38;;
56997;SDS011;42890;44.244;22.530;2023-03-15T09:01:57;18.60;;;13.55;;
56997;SDS011;42890;44.244;22.530;2023-03-15T09:04:23;18.63;;;14.30;;
56997;SDS011;42890;44.244;22.530;2023-03-15T09:06:49;19.77;;;15.20;;
56997;SDS011;42890;44.244;22.530;2023-03-15T09:09:16;20.95;;;13.40;;
56997;SDS011;42890;44.244;22.530;2023-03-15T09:11:42;19.85;;;13.85;;
56997;SDS011;42890;44.244;22.530;2023-03-15T09:14:08;21.83;;;13.90;;
56997;SDS011;42890;44.244;22.530;2023-03-15T09:16:34;25.27;;;16.38;;
56997;SDS011;42890;44.244;22.530;2023-03-15T09:19:00;31.48;;;14.02;;
56997;SDS011;42890;44.244;22.530;2023-03-15T09:21:26;22.83;;;12.85;;
56997;SDS011;42890;44.244;22.530;2023-03-15T09:23:52;23.75;;;14.15;;
56997;SDS011;42890;44.244;22.530;2023-03-15T09:26:19;19.50;;;13.82;;
56997;SDS011;42890;44.244;22.530;2023-03-15T09:28:45;23.85;;;15.13;;
56997;SDS011;42890;44.244;22.530;2023-03-15T09:31:11;23.92;;;13.52;;
56997;SDS011;42890;44.244;22.530;2023-03-15T09:33:37;17.48;;;13.65;;
56997;SDS011;42890;44.244;22.530;2023-03-15T09:36:03;22.52;;;15.18;;
56997;SDS011;42890;44.244;22.530;2023-03-15T09:38:30;18.23;;;14.43;;
56997;SDS011;42890;44.244;22.530;2023-03-15T09:40:56;41.05;;;28.73;;
56997;SDS011;42890;44.244;22.530;2023-03-15T09:43:44;28.75;;;19.08;;
56997;SDS011;42890;44.244;22.530;2023-03-15T09:56:35;18.02;;;12.98;;
56997;SDS011;42890;44.244;22.530;2023-03-15T09:59:02;16.50;;;13.13;;
56997;SDS011;42890;44.244;22.530;2023-03-15T10:01:36;15.95;;;12.02;;
56997;SDS011;42890;44.244;22.530;2023-03-15T10:04:15;33.67;;;23.48;;
56997;SDS011;42890;44.244;22.530;2023-03-15T10:06:44;24.52;;;16.77;;
56997;SDS011;42890;44.244;22.530;2023-03-15T10:09:14;21.25;;;13.95;;
56997;SDS011;42890;44.244;22.530;2023-03-15T10:11:46;20.95;;;14.75;;
56997;SDS011;42890;44.244;22.530;2023-03-15T10:14:17;18.13;;;12.82;;
56997;SDS011;42890;44.244;22.530;2023-03-15T10:16:45;15.93;;;12.02;;
56997;SDS011;42890;44.244;22.530;2023-03-15T10:24:10;16.48;;;12.65;;
56997;SDS011;42890;44.244;22.530;2023-03-15T10:26:39;17.85;;;12.90;;
56997;SDS011;42890;44.244;22.530;2023-03-15T10:29:11;20.55;;;13.57;;
56997;SDS011;42890;44.244;22.530;2023-03-15T10:31:39;14.07;;;12.43;;
56997;SDS011;42890;44.244;22.530;2023-03-15T10:34:07;15.48;;;10.57;;
56997;SDS011;42890;44.244;22.530;2023-03-15T10:36:34;17.02;;;11.48;;
56997;SDS011;42890;44.244;22.530;2023-03-15T10:39:00;24.45;;;12.82;;
56997;SDS011;42890;44.244;22.530;2023-03-15T10:41:27;17.48;;;11.40;;
56997;SDS011;42890;44.244;22.530;2023-03-15T10:43:59;12.55;;;11.00;;
56997;SDS011;42890;44.244;22.530;2023-03-15T10:46:25;14.82;;;10.98;;
56997;SDS011;42890;44.244;22.530;2023-03-15T10:51:25;12.45;;;10.50;;
56997;SDS011;42890;44.244;22.530;2023-03-15T10:53:59;13.68;;;10.25;;
56997;SDS011;42890;44.244;22.530;2023-03-15T10:56:27;12.90;;;9.70;;
56997;SDS011;42890;44.244;22.530;2023-03-15T10:58:54;12.98;;;9.75;;
56997;SDS011;42890;44.244;22.530;2023-03-15T11:01:28;31.98;;;24.13;;
56997;SDS011;42890;44.244;22.530;2023-03-15T11:04:15;19.73;;;15.05;;
56997;SDS011;42890;44.244;22.530;2023-03-15T11:06:43;15.05;;;11.05;;
56997;SDS011;42890;44.244;22.530;2023-03-15T11:09:14;15.05;;;10.77;;
56997;SDS011;42890;44.244;22.530;2023-03-15T11:12:00;22.00;;;11.32;;
56997;SDS011;42890;44.244;22.530;2023-03-15T11:17:00;15.70;;;11.37;;
56997;SDS011;42890;44.244;22.530;2023-03-15T11:19:26;15.27;;;12.80;;
56997;SDS011;42890;44.244;22.530;2023-03-15T11:21:53;18.92;;;15.75;;
56997;SDS011;42890;44.244;22.530;2023-03-15T11:24:23;18.88;;;12.32;;
56997;SDS011;42890;44.244;22.530;2023-03-15T11:26:49;14.23;;;11.93;;
56997;SDS011;42890;44.244;22.530;2023-03-15T11:29:23;14.23;;;11.23;;
56997;SDS011;42890;44.244;22.530;2023-03-15T11:31:50;15.30;;;12.05;;
56997;SDS011;42890;44.244;22.530;2023-03-15T11:34:36;12.50;;;11.18;;
56997;SDS011;42890;44.244;22.530;2023-03-15T11:37:25;13.65;;;10.60;;
56997;SDS011;42890;44.244;22.530;2023-03-15T11:40:00;13.98;;;11.20;;
56997;SDS011;42890;44.244;22.530;2023-03-15T11:42:32;17.30;;;11.40;;
56997;SDS011;42890;44.244;22.530;2023-03-15T11:45:04;27.45;;;20.63;;
56997;SDS011;42890;44.244;22.530;2023-03-15T11:47:49;17.83;;;13.45;;
56997;SDS011;42890;44.244;22.530;2023-03-15T11:50:16;12.48;;;10.57;;
56997;SDS011;42890;44.244;22.530;2023-03-15T11:52:46;22.35;;;19.05;;
56997;SDS011;42890;44.244;22.530;2023-03-15T11:55:16;26.15;;;23.38;;
56997;SDS011;42890;44.244;22.530;2023-03-15T11:57:43;25.98;;;17.88;;
56997;SDS011;42890;44.244;22.530;2023-03-15T12:02:51;16.60;;;12.82;;
56997;SDS011;42890;44.244;22.530;2023-03-15T12:08:16;14.18;;;11.02;;
56997;SDS011;42890;44.244;22.530;2023-03-15T12:10:43;14.35;;;10.63;;
56997;SDS011;42890;44.244;22.530;2023-03-15T12:13:28;13.70;;;10.77;;
56997;SDS011;42890;44.244;22.530;2023-03-15T12:15:54;14.48;;;9.32;;
56997;SDS011;42890;44.244;22.530;2023-03-15T12:18:24;12.77;;;10.02;;
56997;SDS011;42890;44.244;22.530;2023-03-15T12:20:56;13.60;;;8.48;;
56997;SDS011;42890;44.244;22.530;2023-03-15T12:23:35;9.95;;;8.88;;
56997;SDS011;42890;44.244;22.530;2023-03-15T12:33:31;11.82;;;7.43;;
56997;SDS011;42890;44.244;22.530;2023-03-15T12:36:00;7.88;;;6.43;;
56997;SDS011;42890;44.244;22.530;2023-03-15T12:38:37;7.22;;;5.80;;
56997;SDS011;42890;44.244;22.530;2023-03-15T12:41:28;9.75;;;6.43;;
56997;SDS011;42890;44.244;22.530;2023-03-15T12:44:16;7.85;;;6.00;;
56997;SDS011;42890;44.244;22.530;2023-03-15T12:49:26;6.35;;;5.10;;
56997;SDS011;42890;44.244;22.530;2023-03-15T12:51:54;7.70;;;6.88;;
56997;SDS011;42890;44.244;22.530;2023-03-15T12:54:21;6.35;;;5.25;;
56997;SDS011;42890;44.244;22.530;2023-03-15T12:57:10;7.13;;;5.80;;
56997;SDS011;42890;44.244;22.530;2023-03-15T12:59:49;7.20;;;5.30;;
56997;SDS011;42890;44.244;22.530;2023-03-15T13:07:50;6.63;;;4.78;;
56997;SDS011;42890;44.244;22.530;2023-03-15T13:12:49;8.10;;;5.78;;
56997;SDS011;42890;44.244;22.530;2023-03-15T13:15:18;15.68;;;9.43;;
56997;SDS011;42890;44.244;22.530;2023-03-15T13:17:55;29.42;;;13.30;;
56997;SDS011;42890;44.244;22.530;2023-03-15T13:23:19;16.58;;;11.70;;
56997;SDS011;42890;44.244;22.530;2023-03-15T13:28:39;52.92;;;32.00;;
56997;SDS011;42890;44.244;22.530;2023-03-15T13:31:25;21.25;;;16.48;;
56997;SDS011;42890;44.244;22.530;2023-03-15T13:33:55;43.40;;;19.17;;
56997;SDS011;42890;44.244;22.530;2023-03-15T13:36:44;33.42;;;14.00;;
56997;SDS011;42890;44.244;22.530;2023-03-15T13:39:10;64.13;;;26.65;;
56997;SDS011;42890;44.244;22.530;2023-03-15T13:41:39;114.32;;;42.85;;
56997;SDS011;42890;44.244;22.530;2023-03-15T13:44:15;41.90;;;24.75;;
56997;SDS011;42890;44.244;22.530;2023-03-15T13:46:42;36.45;;;20.85;;
56997;SDS011;42890;44.244;22.530;2023-03-15T13:49:10;17.60;;;12.73;;
56997;SDS011;42890;44.244;22.530;2023-03-15T13:51:37;18.88;;;12.35;;
56997;SDS011;42890;44.244;22.530;2023-03-15T13:54:19;14.77;;;9.43;;
56997;SDS011;42890;44.244;22.530;2023-03-15T14:02:15;22.88;;;11.15;;
56997;SDS011;42890;44.244;22.530;2023-03-15T14:04:42;20.70;;;11.40;;
56997;SDS011;42890;44.244;22.530;2023-03-15T14:07:20;12.20;;;8.63;;
56997;SDS011;42890;44.244;22.530;2023-03-15T14:09:48;13.38;;;8.57;;
56997;SDS011;42890;44.244;22.530;2023-03-15T14:12:31;14.73;;;10.32;;
56997;SDS011;42890;44.244;22.530;2023-03-15T14:14:58;15.07;;;8.43;;
56997;SDS011;42890;44.244;22.530;2023-03-15T14:17:25;12.55;;;10.00;;
56997;SDS011;42890;44.244;22.530;2023-03-15T14:19:52;15.40;;;10.77;;
56997;SDS011;42890;44.244;22.530;2023-03-15T14:22:19;13.05;;;9.45;;
56997;SDS011;42890;44.244;22.530;2023-03-15T14:24:46;11.82;;;9.18;;
56997;SDS011;42890;44.244;22.530;2023-03-15T14:27:14;11.05;;;7.57;;
56997;SDS011;42890;44.244;22.530;2023-03-15T14:29:46;9.65;;;7.47;;
56997;SDS011;42890;44.244;22.530;2023-03-15T14:34:58;18.23;;;10.23;;
56997;SDS011;42890;44.244;22.530;2023-03-15T14:37:36;10.90;;;8.10;;
56997;SDS011;42890;44.244;22.530;2023-03-15T14:40:22;10.27;;;6.78;;
56997;SDS011;42890;44.244;22.530;2023-03-15T14:42:53;14.00;;;9.13;;
56997;SDS011;42890;44.244;22.530;2023-03-15T14:45:19;10.90;;;6.72;;
56997;SDS011;42890;44.244;22.530;2023-03-15T14:47:53;17.02;;;6.03;;
56997;SDS011;42890;44.244;22.530;2023-03-15T14:50:20;11.88;;;6.32;;
56997;SDS011;42890;44.244;22.530;2023-03-15T14:52:47;10.80;;;6.50;;
56997;SDS011;42890;44.244;22.530;2023-03-15T14:55:23;16.55;;;6.60;;
56997;SDS011;42890;44.244;22.530;2023-03-15T14:57:52;11.95;;;5.93;;
56997;SDS011;42890;44.244;22.530;2023-03-15T15:00:18;16.42;;;6.47;;
56997;SDS011;42890;44.244;22.530;2023-03-15T15:02:44;11.05;;;6.38;;
56997;SDS011;42890;44.244;22.530;2023-03-15T15:05:15;12.85;;;6.95;;
56997;SDS011;42890;44.244;22.530;2023-03-15T15:07:42;14.52;;;6.50;;
56997;SDS011;42890;44.244;22.530;2023-03-15T15:10:08;13.68;;;7.07;;
56997;SDS011;42890;44.244;22.530;2023-03-15T15:12:35;24.90;;;7.25;;
56997;SDS011;42890;44.244;22.530;2023-03-15T15:15:05;28.50;;;7.57;;